»·PEaware :: N7274H L88-KSBP

N7274H :: L88-KSBP

FLIGHT INFORMATION

Flight Status: Arrived
Operator: Privately registered:
United States
More flights under this callsign
Pilot: Anonymous 16342 (16342)
Aircraft: CESSNA 172 SKYHAWK
(C172)
More flights by this aircraft type
Origin: L88 New Cuyama
United States
Destination: KSBP San Luis Co Regl
United States
More flights between these airports :: More routes between these airports
Route: DCT
File this flight plan on PilotEdge
Remarks: CAT-02 Flight
Altitude:
(Current/Filed)
6,500ft
Speed:
(Current/Filed)
120kts
Departed: 24-Nov-17 11:07 AM
Arrived: 24-Nov-17 11:36 AM
Distance/Time
Traveled:
50nm/0:29
Distance/Time
To Go:
Arrived

Flight Plot

Page will automatically refresh every two minutes.


Map Options




Map Legend


Flown Route
Filed Route
Departure Airport
Arrival Airport
Navaid (VOR, NDB)
Fix

Horizontal Profiles

Position Reports

Time Latitude Longitude Heading Altitude Ground
Speed
24-Nov-17 11:03 34.942999 -119.690645 18 2206ft 0kts
24-Nov-17 11:04 34.942999 -119.690645 18 2206ft 0kts
24-Nov-17 11:05 34.942999 -119.690645 18 2206ft 0kts
24-Nov-17 11:06 34.942549 -119.689760 290 2206ft 0kts
24-Nov-17 11:07 34.942549 -119.689760 290 2206ft 0kts
24-Nov-17 11:08 34.942550 -119.689763 290 2206ft 0kts
24-Nov-17 11:09 34.942552 -119.689768 290 2206ft 0kts
24-Nov-17 11:10 34.942889 -119.691083 234 2206ft 5kts
24-Nov-17 11:11 34.942111 -119.690887 115 2206ft 10kts
24-Nov-17 11:12 34.938703 -119.682513 118 2206ft 43kts
24-Nov-17 11:13 34.938312 -119.681574 297 2206ft 40kts
24-Nov-17 11:14 34.942411 -119.702405 264 2739ft 71kts
24-Nov-17 11:15 34.945383 -119.726298 322 3448ft 88kts
24-Nov-17 11:16 34.956708 -119.741862 297 3939ft 93kts
24-Nov-17 11:17 34.967656 -119.773792 290 4630ft 120kts
24-Nov-17 11:18 34.978958 -119.809523 292 5236ft 116kts
24-Nov-17 11:19 34.990676 -119.846762 294 5936ft 122kts
24-Nov-17 11:20 35.003045 -119.886161 294 6496ft 130kts
24-Nov-17 11:21 35.015618 -119.926309 294 6505ft 116kts
24-Nov-17 11:22 35.027486 -119.964105 294 6514ft 130kts
24-Nov-17 11:23 35.040327 -120.005221 294 6501ft 126kts
24-Nov-17 11:24 35.052931 -120.045516 294 6510ft 131kts
24-Nov-17 11:25 35.064041 -120.081144 294 6507ft 132kts
24-Nov-17 11:26 35.076682 -120.121752 294 6502ft 120kts
24-Nov-17 11:27 35.088682 -120.160396 294 6513ft 127kts
24-Nov-17 11:28 35.101237 -120.200835 294 6513ft 127kts
24-Nov-17 11:29 35.113296 -120.239854 295 6505ft 111kts
24-Nov-17 11:30 35.124371 -120.275446 294 6345ft 125kts
24-Nov-17 11:31 35.136562 -120.314940 295 5617ft 117kts
24-Nov-17 11:32 35.148107 -120.352267 295 4949ft 120kts
24-Nov-17 11:33 35.159895 -120.390491 295 4512ft 119kts
24-Nov-17 11:34 35.171714 -120.428884 294 4509ft 120kts
24-Nov-17 11:35 35.183240 -120.466424 295 4504ft 111kts
24-Nov-17 11:36 35.194114 -120.501693 295 4516ft 116kts
24-Nov-17 11:37 35.204527 -120.539807 275 4497ft 118kts
24-Nov-17 11:38 35.207161 -120.578971 259 4010ft 116kts
24-Nov-17 11:39 35.217296 -120.609172 304 2603ft 87kts
24-Nov-17 11:40 35.232252 -120.632150 306 331ft 76kts
24-Nov-17 11:41 35.237809 -120.641449 99 215ft 1kts
24-Nov-17 11:42 35.237773 -120.640496 93 215ft 0kts
24-Nov-17 11:43 35.236496 -120.637663 124 215ft 17kts
24-Nov-17 11:44 35.236239 -120.635738 55 215ft 0kts
24-Nov-17 11:45 35.236285 -120.635663 44 215ft 0kts
24-Nov-17 11:46 35.236285 -120.635663 44 215ft 0kts
24-Nov-17 11:47 35.236285 -120.635663 44 215ft 0kts
24-Nov-17 11:48 35.236285 -120.635663 44 215ft 0kts
24-Nov-17 11:49 35.236285 -120.635663 44 215ft 0kts
24-Nov-17 11:50 35.236285 -120.635663 44 215ft 0kts
24-Nov-17 11:51 35.236285 -120.635663 44 215ft 0kts
24-Nov-17 11:52 35.236285 -120.635663 44 215ft 0kts
24-Nov-17 11:53 35.236285 -120.635663 44 215ft 0kts
24-Nov-17 11:54 35.236285 -120.635663 44 215ft 0kts
24-Nov-17 11:55 35.236285 -120.635663 44 215ft 0kts

Navigation Log

Ident Type
Flight plan parsing failed, navigation log unavailable